sensor_id;sensor_type;location;lat;lon;timestamp;pressure;altitude;pressure_sealevel;temperature;humidity
22389;BME280;11362;48.102;11.620;2022-07-01T00:02:10;95141.88;;;25.50;51.60
22389;BME280;11362;48.102;11.620;2022-07-01T00:04:35;95143.06;;;25.49;51.87
22389;BME280;11362;48.102;11.620;2022-07-01T00:07:01;95150.22;;;25.50;51.61
22389;BME280;11362;48.102;11.620;2022-07-01T00:09:26;95138.28;;;25.50;51.23
22389;BME280;11362;48.102;11.620;2022-07-01T00:11:51;95145.84;;;25.49;51.84
22389;BME280;11362;48.102;11.620;2022-07-01T00:14:16;95135.94;;;25.48;51.64
22389;BME280;11362;48.102;11.620;2022-07-01T00:16:42;95133.94;;;25.49;51.70
22389;BME280;11362;48.102;11.620;2022-07-01T00:19:07;95147.06;;;25.48;51.52
22389;BME280;11362;48.102;11.620;2022-07-01T00:21:33;95145.06;;;25.49;51.79
22389;BME280;11362;48.102;11.620;2022-07-01T00:23:58;95158.97;;;25.49;52.17
22389;BME280;11362;48.102;11.620;2022-07-01T00:26:24;95155.41;;;25.48;51.90
22389;BME280;11362;48.102;11.620;2022-07-01T00:28:49;95159.75;;;25.49;51.89
22389;BME280;11362;48.102;11.620;2022-07-01T00:31:14;95161.34;;;25.50;51.59
22389;BME280;11362;48.102;11.620;2022-07-01T00:33:40;95164.53;;;25.49;51.71
22389;BME280;11362;48.102;11.620;2022-07-01T00:36:05;95169.31;;;25.48;51.85
22389;BME280;11362;48.102;11.620;2022-07-01T00:38:30;95182.00;;;25.49;51.42
22389;BME280;11362;48.102;11.620;2022-07-01T00:40:56;95174.88;;;25.48;51.46
22389;BME280;11362;48.102;11.620;2022-07-01T00:43:22;95175.66;;;25.49;51.58
22389;BME280;11362;48.102;11.620;2022-07-01T00:45:48;95176.44;;;25.49;51.51
22389;BME280;11362;48.102;11.620;2022-07-01T00:48:14;95180.44;;;25.48;51.69
22389;BME280;11362;48.102;11.620;2022-07-01T00:50:40;95181.22;;;25.49;51.49
22389;BME280;11362;48.102;11.620;2022-07-01T00:53:05;95197.13;;;25.48;51.79
22389;BME280;11362;48.102;11.620;2022-07-01T00:55:31;95197.13;;;25.48;51.48
22389;BME280;11362;48.102;11.620;2022-07-01T00:57:56;95202.69;;;25.48;51.41
22389;BME280;11362;48.102;11.620;2022-07-01T01:00:22;95197.13;;;25.48;51.75
22389;BME280;11362;48.102;11.620;2022-07-01T01:02:47;95197.13;;;25.48;51.53
22389;BME280;11362;48.102;11.620;2022-07-01T01:05:13;95207.47;;;25.48;51.81
22389;BME280;11362;48.102;11.620;2022-07-01T01:07:38;95210.25;;;25.48;51.66
22389;BME280;11362;48.102;11.620;2022-07-01T01:10:04;95209.47;;;25.47;51.42
22389;BME280;11362;48.102;11.620;2022-07-01T01:12:30;95218.59;;;25.48;51.44
22389;BME280;11362;48.102;11.620;2022-07-01T01:14:56;95212.25;;;25.47;51.51
22389;BME280;11362;48.102;11.620;2022-07-01T01:17:21;95206.69;;;25.47;51.41
22389;BME280;11362;48.102;11.620;2022-07-01T01:19:47;95213.03;;;25.48;51.33
22389;BME280;11362;48.102;11.620;2022-07-01T01:22:14;95214.25;;;25.47;51.46
22389;BME280;11362;48.102;11.620;2022-07-01T01:24:41;95213.03;;;25.48;51.57
22389;BME280;11362;48.102;11.620;2022-07-01T01:27:07;95203.13;;;25.47;51.36
22389;BME280;11362;48.102;11.620;2022-07-01T01:29:34;95206.69;;;25.47;51.28
22389;BME280;11362;48.102;11.620;2022-07-01T01:32:00;95211.47;;;25.47;51.13
22389;BME280;11362;48.102;11.620;2022-07-01T01:34:26;95213.47;;;25.46;51.15
22389;BME280;11362;48.102;11.620;2022-07-01T01:36:51;95217.03;;;25.47;51.46
22389;BME280;11362;48.102;11.620;2022-07-01T01:39:17;95210.69;;;25.46;51.56
22389;BME280;11362;48.102;11.620;2022-07-01T01:41:44;95205.13;;;25.46;51.47
22389;BME280;11362;48.102;11.620;2022-07-01T01:44:09;95186.88;;;25.45;51.33
22389;BME280;11362;48.102;11.620;2022-07-01T01:46:35;95189.66;;;25.45;51.59
22389;BME280;11362;48.102;11.620;2022-07-01T01:49:00;95190.41;;;25.46;51.45
22389;BME280;11362;48.102;11.620;2022-07-01T01:51:27;95188.44;;;25.46;51.51
22389;BME280;11362;48.102;11.620;2022-07-01T01:53:52;95181.31;;;25.45;51.36
22389;BME280;11362;48.102;11.620;2022-07-01T01:56:18;95171.41;;;25.44;51.50
22389;BME280;11362;48.102;11.620;2022-07-01T01:58:43;95177.31;;;25.46;51.36
22389;BME280;11362;48.102;11.620;2022-07-01T02:01:12;95165.84;;;25.44;51.19
22389;BME280;11362;48.102;11.620;2022-07-01T02:03:38;95170.94;;;25.46;51.11
22389;BME280;11362;48.102;11.620;2022-07-01T02:06:06;95178.53;;;25.45;51.41
22389;BME280;11362;48.102;11.620;2022-07-01T02:08:32;95186.06;;;25.45;51.15
22389;BME280;11362;48.102;11.620;2022-07-01T02:10:58;95189.66;;;25.45;50.90
22389;BME280;11362;48.102;11.620;2022-07-01T02:13:23;95196.78;;;25.46;51.10
22389;BME280;11362;48.102;11.620;2022-07-01T02:15:48;95199.97;;;25.45;51.16
22389;BME280;11362;48.102;11.620;2022-07-01T02:18:14;95203.56;;;25.45;51.09
22389;BME280;11362;48.102;11.620;2022-07-01T02:20:39;95209.13;;;25.45;51.29
22389;BME280;11362;48.102;11.620;2022-07-01T02:23:04;95205.53;;;25.45;51.46
22389;BME280;11362;48.102;11.620;2022-07-01T02:25:30;95219.44;;;25.45;51.33
22389;BME280;11362;48.102;11.620;2022-07-01T02:27:55;95218.22;;;25.46;51.00
22389;BME280;11362;48.102;11.620;2022-07-01T02:30:20;95225.81;;;25.45;50.97
22389;BME280;11362;48.102;11.620;2022-07-01T02:32:46;95234.16;;;25.45;51.04
22389;BME280;11362;48.102;11.620;2022-07-01T02:35:11;95236.94;;;25.45;50.97
22389;BME280;11362;48.102;11.620;2022-07-01T02:37:37;95241.69;;;25.45;51.29
22389;BME280;11362;48.102;11.620;2022-07-01T02:40:02;95248.06;;;25.45;50.90
22389;BME280;11362;48.102;11.620;2022-07-01T02:42:28;95248.06;;;25.45;51.31
22389;BME280;11362;48.102;11.620;2022-07-01T02:44:57;95258.38;;;25.45;51.03
22389;BME280;11362;48.102;11.620;2022-07-01T02:47:22;95254.84;;;25.44;51.21
22389;BME280;11362;48.102;11.620;2022-07-01T02:49:48;95258.38;;;25.45;51.08
22389;BME280;11362;48.102;11.620;2022-07-01T02:52:13;95259.19;;;25.45;50.93
22389;BME280;11362;48.102;11.620;2022-07-01T02:54:39;95259.19;;;25.45;50.97
22389;BME280;11362;48.102;11.620;2022-07-01T02:57:04;95254.84;;;25.44;51.26
22389;BME280;11362;48.102;11.620;2022-07-01T02:59:29;95257.63;;;25.44;50.99
22389;BME280;11362;48.102;11.620;2022-07-01T03:01:55;95257.63;;;25.44;51.20
22389;BME280;11362;48.102;11.620;2022-07-01T03:04:20;95257.63;;;25.44;50.89
22389;BME280;11362;48.102;11.620;2022-07-01T03:06:46;95255.59;;;25.45;51.14
22389;BME280;11362;48.102;11.620;2022-07-01T03:09:11;95251.25;;;25.44;51.16
22389;BME280;11362;48.102;11.620;2022-07-01T03:11:36;95256.81;;;25.44;51.10
22389;BME280;11362;48.102;11.620;2022-07-01T03:14:02;95253.25;;;25.43;51.04
22389;BME280;11362;48.102;11.620;2022-07-01T03:16:27;95260.81;;;25.43;50.96
22389;BME280;11362;48.102;11.620;2022-07-01T03:18:52;95259.25;;;25.42;50.81
22389;BME280;11362;48.102;11.620;2022-07-01T03:21:18;95270.72;;;25.44;51.06
22389;BME280;11362;48.102;11.620;2022-07-01T03:23:43;95283.84;;;25.43;51.08
22389;BME280;11362;48.102;11.620;2022-07-01T03:26:08;95279.06;;;25.44;51.05
22389;BME280;11362;48.102;11.620;2022-07-01T03:28:33;95280.28;;;25.43;51.05
22389;BME280;11362;48.102;11.620;2022-07-01T03:30:59;95283.84;;;25.43;50.93
22389;BME280;11362;48.102;11.620;2022-07-01T03:33:24;95279.06;;;25.44;50.81
22389;BME280;11362;48.102;11.620;2022-07-01T03:35:50;95278.28;;;25.43;51.06
22389;BME280;11362;48.102;11.620;2022-07-01T03:38:15;95272.72;;;25.43;51.05
22389;BME280;11362;48.102;11.620;2022-07-01T03:40:40;95274.72;;;25.43;51.04
22389;BME280;11362;48.102;11.620;2022-07-01T03:43:06;95276.69;;;25.42;51.03
22389;BME280;11362;48.102;11.620;2022-07-01T03:45:31;95281.06;;;25.43;50.86
22389;BME280;11362;48.102;11.620;2022-07-01T03:47:57;95285.84;;;25.43;50.79
22389;BME280;11362;48.102;11.620;2022-07-01T03:50:24;95290.59;;;25.42;50.78
22389;BME280;11362;48.102;11.620;2022-07-01T03:52:49;95289.41;;;25.43;51.01
22389;BME280;11362;48.102;11.620;2022-07-01T03:55:15;95287.81;;;25.42;51.01
22389;BME280;11362;48.102;11.620;2022-07-01T03:57:40;95296.53;;;25.44;50.93
22389;BME280;11362;48.102;11.620;2022-07-01T04:00:06;95288.63;;;25.43;50.87
22389;BME280;11362;48.102;11.620;2022-07-01T04:02:32;95300.53;;;25.43;50.99
22389;BME280;11362;48.102;11.620;2022-07-01T04:04:57;95293.38;;;25.42;51.01
22389;BME280;11362;48.102;11.620;2022-07-01T04:07:23;95298.53;;;25.44;50.98
22389;BME280;11362;48.102;11.620;2022-07-01T04:09:49;95300.53;;;25.43;50.89
22389;BME280;11362;48.102;11.620;2022-07-01T04:12:16;95296.16;;;25.42;51.20
22389;BME280;11362;48.102;11.620;2022-07-01T04:14:41;95289.41;;;25.43;50.55
22389;BME280;11362;48.102;11.620;2022-07-01T04:17:07;95283.06;;;25.43;51.01
22389;BME280;11362;48.102;11.620;2022-07-01T04:19:32;95278.28;;;25.43;50.93
22389;BME280;11362;48.102;11.620;2022-07-01T04:21:58;95271.94;;;25.43;50.76
22389;BME280;11362;48.102;11.620;2022-07-01T04:24:23;95273.91;;;25.42;50.80
22389;BME280;11362;48.102;11.620;2022-07-01T04:26:48;95268.34;;;25.42;50.85
22389;BME280;11362;48.102;11.620;2022-07-01T04:29:14;95254.47;;;25.42;50.98
22389;BME280;11362;48.102;11.620;2022-07-01T04:31:40;95244.13;;;25.43;50.79
22389;BME280;11362;48.102;11.620;2022-07-01T04:34:07;95247.31;;;25.41;50.67
22389;BME280;11362;48.102;11.620;2022-07-01T04:36:32;95262.78;;;25.42;50.62
22389;BME280;11362;48.102;11.620;2022-07-01T04:38:58;95263.59;;;25.43;50.68
22389;BME280;11362;48.102;11.620;2022-07-01T04:41:23;95266.38;;;25.43;51.05
22389;BME280;11362;48.102;11.620;2022-07-01T04:43:48;95271.13;;;25.42;50.90
22389;BME280;11362;48.102;11.620;2022-07-01T04:46:14;95266.38;;;25.43;50.92
22389;BME280;11362;48.102;11.620;2022-07-01T04:48:39;95252.47;;;25.43;50.70
22389;BME280;11362;48.102;11.620;2022-07-01T04:51:04;95254.47;;;25.42;50.97
22389;BME280;11362;48.102;11.620;2022-07-01T04:53:30;95249.69;;;25.43;50.64
22389;BME280;11362;48.102;11.620;2022-07-01T04:55:55;95250.47;;;25.43;50.64
22389;BME280;11362;48.102;11.620;2022-07-01T04:58:20;95244.94;;;25.43;50.95
22389;BME280;11362;48.102;11.620;2022-07-01T05:00:46;95228.25;;;25.43;50.60
22389;BME280;11362;48.102;11.620;2022-07-01T05:03:11;95222.69;;;25.43;50.57
22389;BME280;11362;48.102;11.620;2022-07-01T05:05:36;95223.88;;;25.42;50.73
22389;BME280;11362;48.102;11.620;2022-07-01T05:08:02;95217.88;;;25.44;50.61
22389;BME280;11362;48.102;11.620;2022-07-01T05:10:27;95232.59;;;25.44;50.91
22389;BME280;11362;48.102;11.620;2022-07-01T05:12:52;95233.81;;;25.43;50.91
22389;BME280;11362;48.102;11.620;2022-07-01T05:15:18;95234.16;;;25.45;50.67
22389;BME280;11362;48.102;11.620;2022-07-01T05:17:43;95249.25;;;25.44;50.69
22389;BME280;11362;48.102;11.620;2022-07-01T05:20:09;95257.16;;;25.46;50.87
22389;BME280;11362;48.102;11.620;2022-07-01T05:22:34;95261.16;;;25.45;50.83
22389;BME280;11362;48.102;11.620;2022-07-01T05:25:00;95257.97;;;25.46;50.84
22389;BME280;11362;48.102;11.620;2022-07-01T05:27:25;95255.53;;;25.48;50.87
22389;BME280;11362;48.102;11.620;2022-07-01T05:29:50;95254.69;;;25.51;51.27
22389;BME280;11362;48.102;11.620;2022-07-01T05:32:15;95237.53;;;25.53;50.87
22389;BME280;11362;48.102;11.620;2022-07-01T05:34:41;95235.56;;;25.53;50.86
22389;BME280;11362;48.102;11.620;2022-07-01T05:37:06;95220.84;;;25.53;50.78
22389;BME280;11362;48.102;11.620;2022-07-01T05:39:31;95211.75;;;25.52;50.94
22389;BME280;11362;48.102;11.620;2022-07-01T05:41:57;95233.19;;;25.52;51.12
22389;BME280;11362;48.102;11.620;2022-07-01T05:44:22;95269.72;;;25.54;51.33
22389;BME280;11362;48.102;11.620;2022-07-01T05:46:47;95282.84;;;25.53;50.69
22389;BME280;11362;48.102;11.620;2022-07-01T05:49:12;95296.03;;;25.49;50.45
22389;BME280;11362;48.102;11.620;2022-07-01T05:51:38;95302.19;;;25.41;49.98
22389;BME280;11362;48.102;11.620;2022-07-01T05:54:03;95307.00;;;25.37;50.49
22389;BME280;11362;48.102;11.620;2022-07-01T05:56:28;95316.56;;;25.36;49.93
22389;BME280;11362;48.102;11.620;2022-07-01T05:58:54;95322.94;;;25.36;49.76
22389;BME280;11362;48.102;11.620;2022-07-01T06:01:19;95326.28;;;25.28;49.57
22389;BME280;11362;48.102;11.620;2022-07-01T06:03:45;95323.84;;;25.30;49.53
22389;BME280;11362;48.102;11.620;2022-07-01T06:06:10;95313.44;;;25.34;49.92
22389;BME280;11362;48.102;11.620;2022-07-01T06:08:35;95302.88;;;25.25;49.41
22389;BME280;11362;48.102;11.620;2022-07-01T06:11:01;95313.69;;;25.20;48.74
22389;BME280;11362;48.102;11.620;2022-07-01T06:13:26;95324.88;;;25.16;48.73
22389;BME280;11362;48.102;11.620;2022-07-01T06:15:51;95328.75;;;25.22;48.78
22389;BME280;11362;48.102;11.620;2022-07-01T06:18:17;95332.97;;;25.30;48.78
22389;BME280;11362;48.102;11.620;2022-07-01T06:20:42;95339.22;;;25.34;48.74
22389;BME280;11362;48.102;11.620;2022-07-01T06:23:08;95346.75;;;25.37;48.85
22389;BME280;11362;48.102;11.620;2022-07-01T06:25:33;95353.06;;;25.38;48.61
22389;BME280;11362;48.102;11.620;2022-07-01T06:27:58;95347.81;;;25.20;48.31
22389;BME280;11362;48.102;11.620;2022-07-01T06:30:24;95358.28;;;25.13;48.62
22389;BME280;11362;48.102;11.620;2022-07-01T06:32:49;95369.34;;;25.16;48.21
22389;BME280;11362;48.102;11.620;2022-07-01T06:35:14;95363.72;;;25.20;48.40
22389;BME280;11362;48.102;11.620;2022-07-01T06:37:40;95366.84;;;25.22;48.01
22389;BME280;11362;48.102;11.620;2022-07-01T06:40:06;95363.69;;;25.23;48.13
22389;BME280;11362;48.102;11.620;2022-07-01T06:42:33;95363.78;;;25.16;48.33
22389;BME280;11362;48.102;11.620;2022-07-01T06:44:59;95366.94;;;25.18;48.18
22389;BME280;11362;48.102;11.620;2022-07-01T06:47:24;95368.88;;;25.21;48.42
22389;BME280;11362;48.102;11.620;2022-07-01T06:49:50;95361.25;;;25.25;48.00
22389;BME280;11362;48.102;11.620;2022-07-01T06:52:15;95349.72;;;25.27;48.27
22389;BME280;11362;48.102;11.620;2022-07-01T06:54:41;95343.31;;;25.30;48.32
22389;BME280;11362;48.102;11.620;2022-07-01T06:57:06;95348.44;;;25.31;48.46
22389;BME280;11362;48.102;11.620;2022-07-01T06:59:32;95355.56;;;25.32;48.37
22389;BME280;11362;48.102;11.620;2022-07-01T07:01:58;95357.13;;;25.33;48.10
22389;BME280;11362;48.102;11.620;2022-07-01T07:04:23;95367.50;;;25.33;48.65
22389;BME280;11362;48.102;11.620;2022-07-01T07:06:49;95359.56;;;25.31;48.53
22389;BME280;11362;48.102;11.620;2022-07-01T07:09:14;95362.34;;;25.31;48.38
22389;BME280;11362;48.102;11.620;2022-07-01T07:11:39;95366.69;;;25.32;48.43
22389;BME280;11362;48.102;11.620;2022-07-01T07:14:05;95366.28;;;25.34;48.49
22389;BME280;11362;48.102;11.620;2022-07-01T07:16:30;95371.84;;;25.34;48.47
22389;BME280;11362;48.102;11.620;2022-07-01T07:18:56;95367.44;;;25.36;48.47
22389;BME280;11362;48.102;11.620;2022-07-01T07:21:21;95368.19;;;25.37;48.76
22389;BME280;11362;48.102;11.620;2022-07-01T07:23:46;95364.66;;;25.36;48.48
22389;BME280;11362;48.102;11.620;2022-07-01T07:26:11;95359.44;;;25.38;48.40
22389;BME280;11362;48.102;11.620;2022-07-01T07:28:37;95358.63;;;25.38;48.42
22389;BME280;11362;48.102;11.620;2022-07-01T07:31:02;95363.44;;;25.37;48.26
22389;BME280;11362;48.102;11.620;2022-07-01T07:33:28;95364.72;;;25.33;48.33
22389;BME280;11362;48.102;11.620;2022-07-01T07:35:53;95352.38;;;25.34;48.57
22389;BME280;11362;48.102;11.620;2022-07-01T07:38:19;95360.28;;;25.35;48.79
22389;BME280;11362;48.102;11.620;2022-07-01T07:40:44;95349.16;;;25.35;48.68
22389;BME280;11362;48.102;11.620;2022-07-01T07:43:10;95350.75;;;25.36;48.60
22389;BME280;11362;48.102;11.620;2022-07-01T07:45:35;95353.44;;;25.40;49.01
22389;BME280;11362;48.102;11.620;2022-07-01T07:48:01;95354.22;;;25.40;48.82
22389;BME280;11362;48.102;11.620;2022-07-01T07:50:26;95371.25;;;25.42;49.14
22389;BME280;11362;48.102;11.620;2022-07-01T07:52:52;95378.41;;;25.43;49.21
22389;BME280;11362;48.102;11.620;2022-07-01T07:55:18;95375.19;;;25.45;49.79
22389;BME280;11362;48.102;11.620;2022-07-01T07:57:43;95381.53;;;25.45;49.87
22389;BME280;11362;48.102;11.620;2022-07-01T08:00:10;95380.69;;;25.48;49.81
22389;BME280;11362;48.102;11.620;2022-07-01T08:02:37;95384.25;;;25.49;50.15
22389;BME280;11362;48.102;11.620;2022-07-01T08:05:02;95389.41;;;25.50;50.50
22389;BME280;11362;48.102;11.620;2022-07-01T08:07:28;95386.97;;;25.52;50.29
22389;BME280;11362;48.102;11.620;2022-07-01T08:09:53;95408.44;;;25.52;50.22
22389;BME280;11362;48.102;11.620;2022-07-01T08:12:19;95416.34;;;25.53;50.37
22389;BME280;11362;48.102;11.620;2022-07-01T08:14:44;95422.72;;;25.54;50.40
22389;BME280;11362;48.102;11.620;2022-07-01T08:17:09;95425.50;;;25.54;50.68
22389;BME280;11362;48.102;11.620;2022-07-01T08:19:35;95424.28;;;25.55;50.73
22389;BME280;11362;48.102;11.620;2022-07-01T08:22:00;95433.41;;;25.55;50.67
22389;BME280;11362;48.102;11.620;2022-07-01T08:24:26;95450.09;;;25.55;51.03
22389;BME280;11362;48.102;11.620;2022-07-01T08:26:51;95460.00;;;25.56;51.36
22389;BME280;11362;48.102;11.620;2022-07-01T08:29:16;95479.47;;;25.56;50.92
22389;BME280;11362;48.102;11.620;2022-07-01T08:31:42;95482.25;;;25.56;51.19
22389;BME280;11362;48.102;11.620;2022-07-01T08:34:07;95497.38;;;25.55;51.12
22389;BME280;11362;48.102;11.620;2022-07-01T08:36:33;95505.31;;;25.57;51.43
22389;BME280;11362;48.102;11.620;2022-07-01T08:38:58;95494.97;;;25.57;51.07
22389;BME280;11362;48.102;11.620;2022-07-01T08:41:24;95533.91;;;25.57;51.46
22389;BME280;11362;48.102;11.620;2022-07-01T08:43:49;95526.34;;;25.58;51.44
22389;BME280;11362;48.102;11.620;2022-07-01T08:46:14;95537.06;;;25.59;51.73
22389;BME280;11362;48.102;11.620;2022-07-01T08:48:44;95523.16;;;25.59;51.63
22389;BME280;11362;48.102;11.620;2022-07-01T08:51:10;95520.38;;;25.59;51.41
22389;BME280;11362;48.102;11.620;2022-07-01T08:53:36;95537.81;;;25.60;51.23
22389;BME280;11362;48.102;11.620;2022-07-01T08:56:01;95543.84;;;25.58;51.42
22389;BME280;11362;48.102;11.620;2022-07-01T08:58:28;95542.63;;;25.59;51.50
22389;BME280;11362;48.102;11.620;2022-07-01T09:00:53;95544.59;;;25.59;51.31
22389;BME280;11362;48.102;11.620;2022-07-01T09:03:36;95535.84;;;25.60;51.27
22389;BME280;11362;48.102;11.620;2022-07-01T09:06:01;95519.16;;;25.60;51.42
22389;BME280;11362;48.102;11.620;2022-07-01T09:08:26;95533.41;;;25.62;51.53
22389;BME280;11362;48.102;11.620;2022-07-01T09:10:52;95525.06;;;25.62;51.92
22389;BME280;11362;48.102;11.620;2022-07-01T09:13:17;95519.84;;;25.64;52.05
22389;BME280;11362;48.102;11.620;2022-07-01T09:15:42;95527.38;;;25.67;52.02
22389;BME280;11362;48.102;11.620;2022-07-01T09:18:15;95519.03;;;25.67;52.17
22389;BME280;11362;48.102;11.620;2022-07-01T09:20:46;95523.38;;;25.68;52.14
22389;BME280;11362;48.102;11.620;2022-07-01T09:23:17;95537.63;;;25.70;52.19
22389;BME280;11362;48.102;11.620;2022-07-01T09:25:50;95531.31;;;25.70;52.04
22389;BME280;11362;48.102;11.620;2022-07-01T09:28:19;95534.50;;;25.68;52.20
22389;BME280;11362;48.102;11.620;2022-07-01T09:30:47;95535.72;;;25.67;52.13
22389;BME280;11362;48.102;11.620;2022-07-01T09:33:18;95547.63;;;25.68;52.04
22389;BME280;11362;48.102;11.620;2022-07-01T09:35:45;95544.06;;;25.67;52.08
22389;BME280;11362;48.102;11.620;2022-07-01T09:38:13;95543.25;;;25.67;52.09
22389;BME280;11362;48.102;11.620;2022-07-01T09:40:55;95558.75;;;25.68;52.04
22389;BME280;11362;48.102;11.620;2022-07-01T09:43:29;95559.53;;;25.68;52.30
22389;BME280;11362;48.102;11.620;2022-07-01T09:46:07;95563.53;;;25.67;51.91
22389;BME280;11362;48.102;11.620;2022-07-01T09:50:59;95561.16;;;25.66;52.14
22389;BME280;11362;48.102;11.620;2022-07-01T09:53:25;95558.03;;;25.64;51.86
22389;BME280;11362;48.102;11.620;2022-07-01T09:55:51;95560.81;;;25.64;51.74
22389;BME280;11362;48.102;11.620;2022-07-01T09:58:17;95561.22;;;25.62;51.67
22389;BME280;11362;48.102;11.620;2022-07-01T10:00:43;95568.81;;;25.62;51.88
22389;BME280;11362;48.102;11.620;2022-07-01T10:03:09;95576.34;;;25.61;51.59
22389;BME280;11362;48.102;11.620;2022-07-01T10:14:29;95585.19;;;25.56;51.34
22389;BME280;11362;48.102;11.620;2022-07-01T10:16:55;95595.13;;;25.57;51.45
22389;BME280;11362;48.102;11.620;2022-07-01T10:21:46;95600.31;;;25.55;51.51
22389;BME280;11362;48.102;11.620;2022-07-01T10:24:16;95614.22;;;25.55;51.60
22389;BME280;11362;48.102;11.620;2022-07-01T10:26:43;95611.88;;;25.54;51.38
22389;BME280;11362;48.102;11.620;2022-07-01T10:29:33;95620.63;;;25.52;51.35
22389;BME280;11362;48.102;11.620;2022-07-01T10:32:01;95621.84;;;25.51;51.08
22389;BME280;11362;48.102;11.620;2022-07-01T10:34:33;95630.19;;;25.51;51.28
22389;BME280;11362;48.102;11.620;2022-07-01T10:37:10;95627.41;;;25.51;50.95
22389;BME280;11362;48.102;11.620;2022-07-01T10:40:02;95630.59;;;25.50;51.26
22389;BME280;11362;48.102;11.620;2022-07-01T10:42:34;95634.19;;;25.50;51.01
22389;BME280;11362;48.102;11.620;2022-07-01T10:45:19;95619.47;;;25.50;51.04
22389;BME280;11362;48.102;11.620;2022-07-01T10:47:45;95615.88;;;25.49;51.29
22389;BME280;11362;48.102;11.620;2022-07-01T10:50:12;95617.50;;;25.50;51.06
22389;BME280;11362;48.102;11.620;2022-07-01T10:52:38;95616.69;;;25.50;50.72
22389;BME280;11362;48.102;11.620;2022-07-01T10:55:06;95621.44;;;25.49;50.81
22389;BME280;11362;48.102;11.620;2022-07-01T10:57:38;95615.88;;;25.49;50.72
22389;BME280;11362;48.102;11.620;2022-07-01T11:02:32;95623.47;;;25.49;50.83
22389;BME280;11362;48.102;11.620;2022-07-01T11:07:30;95620.69;;;25.49;50.83
22389;BME280;11362;48.102;11.620;2022-07-01T11:09:58;95629.44;;;25.47;50.55
22389;BME280;11362;48.102;11.620;2022-07-01T11:12:24;95632.22;;;25.47;50.53
22389;BME280;11362;48.102;11.620;2022-07-01T11:14:50;95635.00;;;25.47;50.66
22389;BME280;11362;48.102;11.620;2022-07-01T11:17:15;95627.88;;;25.46;50.59
22389;BME280;11362;48.102;11.620;2022-07-01T11:19:47;95615.53;;;25.47;50.79
22389;BME280;11362;48.102;11.620;2022-07-01T11:22:17;95623.09;;;25.47;50.44
22389;BME280;11362;48.102;11.620;2022-07-01T11:24:43;95635.00;;;25.47;50.47
22389;BME280;11362;48.102;11.620;2022-07-01T11:27:08;95640.97;;;25.46;50.75
22389;BME280;11362;48.102;11.620;2022-07-01T11:29:34;95648.56;;;25.45;50.37
22389;BME280;11362;48.102;11.620;2022-07-01T11:31:59;95649.75;;;25.44;50.46
22389;BME280;11362;48.102;11.620;2022-07-01T11:34:27;95638.63;;;25.44;50.63
22389;BME280;11362;48.102;11.620;2022-07-01T11:36:53;95633.84;;;25.45;50.64
22389;BME280;11362;48.102;11.620;2022-07-01T11:39:19;95648.97;;;25.44;50.53
22389;BME280;11362;48.102;11.620;2022-07-01T11:41:45;95657.31;;;25.44;50.65
22389;BME280;11362;48.102;11.620;2022-07-01T11:44:10;95655.31;;;25.44;50.70
22389;BME280;11362;48.102;11.620;2022-07-01T11:46:35;95658.09;;;25.44;50.71
22389;BME280;11362;48.102;11.620;2022-07-01T11:49:11;95643.03;;;25.42;50.45
22389;BME280;11362;48.102;11.620;2022-07-01T11:51:36;95633.94;;;25.38;50.20
22389;BME280;11362;48.102;11.620;2022-07-01T11:54:02;95661.00;;;25.37;49.78
22389;BME280;11362;48.102;11.620;2022-07-01T11:56:36;95672.56;;;25.32;49.47
22389;BME280;11362;48.102;11.620;2022-07-01T11:59:02;95675.00;;;25.30;49.38
22389;BME280;11362;48.102;11.620;2022-07-01T12:01:33;95681.31;;;25.31;49.31
22389;BME280;11362;48.102;11.620;2022-07-01T12:04:01;95686.88;;;25.31;49.12
22389;BME280;11362;48.102;11.620;2022-07-01T12:06:27;95671.78;;;25.32;48.53
22389;BME280;11362;48.102;11.620;2022-07-01T12:08:53;95659.88;;;25.31;48.70
22389;BME280;11362;48.102;11.620;2022-07-01T12:11:19;95644.41;;;25.30;48.51
22389;BME280;11362;48.102;11.620;2022-07-01T12:13:46;95646.78;;;25.28;48.44
22389;BME280;11362;48.102;11.620;2022-07-01T12:16:13;95659.09;;;25.31;48.38
22389;BME280;11362;48.102;11.620;2022-07-01T12:18:39;95659.09;;;25.31;48.25
22389;BME280;11362;48.102;11.620;2022-07-01T12:21:04;95647.19;;;25.30;48.25
22389;BME280;11362;48.102;11.620;2022-07-01T12:23:30;95655.53;;;25.30;48.18
22389;BME280;11362;48.102;11.620;2022-07-01T12:25:56;95655.13;;;25.28;47.88
22389;BME280;11362;48.102;11.620;2022-07-01T12:28:30;95655.94;;;25.29;47.98
22389;BME280;11362;48.102;11.620;2022-07-01T12:31:07;95654.78;;;25.26;48.20
22389;BME280;11362;48.102;11.620;2022-07-01T12:33:34;95654.78;;;25.26;47.61
22389;BME280;11362;48.102;11.620;2022-07-01T12:36:01;95674.59;;;25.28;47.99
22389;BME280;11362;48.102;11.620;2022-07-01T12:38:27;95677.81;;;25.27;48.04
22389;BME280;11362;48.102;11.620;2022-07-01T12:40:52;95694.91;;;25.25;47.62
22389;BME280;11362;48.102;11.620;2022-07-01T12:43:30;95710.38;;;25.26;47.69
22389;BME280;11362;48.102;11.620;2022-07-01T12:46:00;95720.75;;;25.26;47.82
22389;BME280;11362;48.102;11.620;2022-07-01T12:48:26;95740.97;;;25.26;47.88
22389;BME280;11362;48.102;11.620;2022-07-01T12:50:54;95742.19;;;25.25;48.05
22389;BME280;11362;48.102;11.620;2022-07-01T12:53:20;95738.59;;;25.25;47.68
22389;BME280;11362;48.102;11.620;2022-07-01T12:55:49;95725.13;;;25.23;47.71
22389;BME280;11362;48.102;11.620;2022-07-01T12:58:17;95731.47;;;25.24;47.68
22389;BME280;11362;48.102;11.620;2022-07-01T13:00:44;95744.59;;;25.23;47.63
22389;BME280;11362;48.102;11.620;2022-07-01T13:03:10;95747.38;;;25.23;47.38
22389;BME280;11362;48.102;11.620;2022-07-01T13:05:37;95746.59;;;25.23;47.47